createdAt,value
2019-05-19T00:01:59.914Z,81.30
2019-05-19T00:04:29.109Z,81.40
2019-05-19T00:06:58.074Z,80.70
2019-05-19T00:09:27.000Z,81.10
2019-05-19T00:11:55.865Z,81.10
2019-05-19T00:14:24.985Z,81.20
2019-05-19T00:16:53.871Z,81.30
2019-05-19T00:19:26.622Z,81.40
2019-05-19T00:21:53.386Z,81.50
2019-05-19T00:24:22.125Z,81.50
2019-05-19T00:26:50.941Z,81.70
2019-05-19T00:29:19.868Z,81.80
2019-05-19T00:31:48.710Z,81.90
2019-05-19T00:34:17.683Z,81.80
2019-05-19T00:36:46.667Z,81.70
2019-05-19T00:39:15.723Z,81.80
2019-05-19T00:41:44.644Z,82.00
2019-05-19T00:44:13.487Z,82.20
2019-05-19T00:46:42.395Z,82.20
2019-05-19T00:49:11.347Z,82.10
2019-05-19T00:51:40.406Z,82.10
2019-05-19T00:54:10.288Z,82.20
2019-05-19T00:56:39.198Z,82.10
2019-05-19T00:59:08.841Z,81.50
2019-05-19T01:01:38.995Z,81.30
2019-05-19T01:04:07.788Z,82.00
2019-05-19T01:06:36.681Z,82.20
2019-05-19T01:09:06.808Z,79.70
2019-05-19T01:11:35.558Z,81.90
2019-05-19T01:14:04.549Z,81.50
2019-05-19T01:16:33.400Z,82.30
2019-05-19T01:19:02.358Z,81.40
2019-05-19T01:21:32.002Z,82.30
2019-05-19T01:24:00.783Z,81.40
2019-05-19T01:26:29.610Z,82.50
2019-05-19T01:28:58.455Z,82.90
2019-05-19T01:31:27.414Z,83.10
2019-05-19T01:33:56.316Z,83.90
2019-05-19T01:36:25.128Z,82.70
2019-05-19T01:38:53.886Z,82.90
2019-05-19T01:41:22.741Z,81.50
2019-05-19T01:43:51.723Z,83.00
2019-05-19T01:46:20.605Z,83.80
2019-05-19T01:48:49.347Z,83.70
2019-05-19T01:51:18.138Z,84.00
2019-05-19T01:53:46.932Z,84.20
2019-05-19T01:56:15.921Z,84.10
2019-05-19T01:58:44.871Z,84.30
2019-05-19T02:01:13.707Z,83.80
2019-05-19T02:03:44.166Z,84.50
2019-05-19T02:06:13.147Z,84.60
2019-05-19T02:08:42.004Z,84.10
2019-05-19T02:11:10.760Z,84.70
2019-05-19T02:13:39.573Z,84.80
2019-05-19T02:16:08.489Z,84.80
2019-05-19T02:18:37.418Z,85.10
2019-05-19T02:21:06.457Z,84.40
2019-05-19T02:23:35.245Z,85.00
2019-05-19T02:26:04.149Z,85.00
2019-05-19T02:28:33.129Z,83.80
2019-05-19T02:31:01.964Z,84.90
2019-05-19T02:33:34.982Z,85.10
2019-05-19T02:36:01.322Z,85.50
2019-05-19T02:38:30.184Z,83.10
2019-05-19T02:41:00.499Z,84.20
2019-05-19T02:43:29.926Z,85.50
2019-05-19T02:46:01.793Z,84.40
2019-05-19T02:48:31.969Z,84.80
2019-05-19T02:51:03.694Z,84.30
2019-05-19T02:53:33.286Z,85.80
2019-05-19T02:56:04.162Z,85.80
2019-05-19T02:58:33.923Z,85.90
2019-05-19T03:01:02.696Z,85.80
2019-05-19T03:03:33.904Z,85.80
2019-05-19T03:06:02.898Z,85.70
2019-05-19T03:08:32.294Z,85.60
2019-05-19T03:11:01.309Z,85.50
2019-05-19T03:13:30.231Z,85.60
2019-05-19T03:15:59.072Z,85.20
2019-05-19T03:18:28.037Z,86.30
2019-05-19T03:21:10.305Z,84.50
2019-05-19T03:23:27.329Z,84.90
2019-05-19T03:25:56.153Z,84.10
2019-05-19T03:28:24.956Z,84.50
2019-05-19T03:31:00.830Z,84.30
2019-05-19T03:33:31.234Z,84.20
2019-05-19T03:36:00.150Z,81.10
2019-05-19T03:38:28.969Z,83.60
2019-05-19T03:40:57.861Z,80.10
2019-05-19T03:43:26.735Z,84.00
2019-05-19T03:45:55.577Z,83.50
2019-05-19T03:48:24.502Z,83.70
2019-05-19T03:50:53.367Z,82.90
2019-05-19T03:53:22.260Z,82.10
2019-05-19T03:55:51.096Z,84.20
2019-05-19T03:58:20.418Z,85.40
2019-05-19T04:00:49.500Z,85.20
2019-05-19T04:03:18.328Z,85.30
2019-05-19T04:05:49.572Z,85.20
2019-05-19T04:08:18.363Z,85.00
2019-05-19T04:10:47.199Z,84.70
2019-05-19T04:13:16.038Z,84.60
2019-05-19T04:15:44.821Z,84.40
2019-05-19T04:18:13.709Z,84.50
2019-05-19T04:20:42.626Z,84.20
2019-05-19T04:23:11.540Z,83.70
2019-05-19T04:25:40.443Z,83.80
2019-05-19T04:28:09.291Z,83.80
2019-05-19T04:30:38.095Z,83.70
2019-05-19T04:33:07.069Z,83.40
2019-05-19T04:35:35.816Z,83.40
2019-05-19T04:38:04.678Z,83.00
2019-05-19T04:40:33.553Z,83.00
2019-05-19T04:43:02.522Z,82.90
2019-05-19T04:45:31.432Z,81.90
2019-05-19T04:48:00.359Z,81.50
2019-05-19T04:50:29.192Z,79.50
2019-05-19T04:52:58.103Z,78.50
2019-05-19T04:55:27.024Z,78.10
2019-05-19T04:57:55.851Z,78.00
2019-05-19T05:00:24.786Z,77.70
2019-05-19T05:02:53.620Z,77.20
2019-05-19T05:05:22.556Z,77.10
2019-05-19T05:07:51.412Z,75.00
2019-05-19T05:10:20.491Z,72.60
2019-05-19T05:12:49.338Z,71.50
2019-05-19T05:15:18.344Z,71.10
2019-05-19T05:17:47.183Z,68.60
2019-05-19T05:20:16.312Z,66.10
2019-05-19T05:22:47.269Z,65.60
2019-05-19T05:25:16.563Z,63.90
2019-05-19T05:27:45.299Z,62.90
2019-05-19T05:30:14.279Z,61.30
2019-05-19T05:32:43.142Z,59.70
2019-05-19T05:35:12.510Z,58.60
2019-05-19T05:37:41.415Z,57.60
2019-05-19T05:40:10.341Z,56.20
2019-05-19T05:42:39.169Z,55.20
2019-05-19T05:45:09.086Z,54.60
2019-05-19T05:47:37.941Z,53.50
2019-05-19T05:50:07.481Z,52.90
2019-05-19T05:52:38.792Z,52.00
2019-05-19T05:55:07.441Z,51.00
2019-05-19T05:57:36.454Z,50.20
2019-05-19T06:00:06.143Z,50.00
2019-05-19T06:02:35.367Z,49.40
2019-05-19T06:05:04.755Z,48.70
2019-05-19T06:07:33.738Z,48.40
2019-05-19T06:10:02.629Z,47.40
2019-05-19T06:12:31.498Z,49.30
2019-05-19T06:15:00.415Z,47.90
2019-05-19T06:17:29.377Z,46.80
2019-05-19T06:19:58.210Z,44.20
2019-05-19T06:22:27.084Z,44.60
2019-05-19T06:24:58.951Z,48.50
2019-05-19T06:27:26.454Z,43.50
2019-05-19T06:29:55.338Z,43.70
2019-05-19T06:32:34.102Z,43.40
2019-05-19T06:35:03.089Z,42.80
2019-05-19T06:37:31.975Z,42.40
2019-05-19T06:40:00.859Z,42.20
2019-05-19T06:42:49.299Z,40.70
2019-05-19T06:45:18.380Z,42.10
2019-05-19T06:47:47.349Z,42.20
2019-05-19T06:50:16.565Z,41.20
2019-05-19T06:52:45.464Z,40.70
2019-05-19T06:55:15.255Z,40.00
2019-05-19T06:57:44.290Z,39.60
2019-05-19T07:00:14.628Z,38.90
2019-05-19T07:02:43.466Z,39.60
2019-05-19T07:05:13.014Z,38.60
2019-05-19T07:07:41.936Z,38.90
2019-05-19T07:10:11.338Z,38.10
2019-05-19T07:12:40.172Z,38.30
2019-05-19T07:15:09.621Z,37.60
2019-05-19T07:17:38.436Z,36.40
2019-05-19T07:20:08.033Z,38.10
2019-05-19T07:22:37.699Z,38.00
2019-05-19T07:25:07.186Z,36.10
2019-05-19T07:27:36.321Z,36.80
2019-05-19T07:30:05.496Z,38.50
2019-05-19T07:32:34.276Z,35.10
2019-05-19T07:35:03.189Z,35.70
2019-05-19T07:37:32.336Z,35.10
2019-05-19T07:40:01.281Z,35.80
2019-05-19T07:42:30.215Z,36.00
2019-05-19T07:44:59.110Z,35.20
2019-05-19T07:47:27.952Z,35.70
2019-05-19T07:49:56.806Z,35.50
2019-05-19T07:52:25.864Z,36.10
2019-05-19T07:54:54.679Z,36.20
2019-05-19T07:57:23.622Z,36.10
2019-05-19T07:59:52.380Z,35.90
2019-05-19T08:02:21.152Z,36.60
2019-05-19T08:04:50.008Z,36.60
2019-05-19T08:07:19.227Z,36.10
2019-05-19T08:09:48.046Z,36.50
2019-05-19T08:12:17.245Z,36.60
2019-05-19T08:14:46.133Z,39.20
2019-05-19T08:17:14.969Z,37.80
2019-05-19T08:19:43.955Z,36.50
2019-05-19T08:22:12.873Z,37.20
2019-05-19T08:24:41.749Z,38.30
2019-05-19T08:27:11.557Z,37.60
2019-05-19T08:29:40.412Z,39.40
2019-05-19T08:32:09.325Z,38.30
2019-05-19T08:34:38.140Z,40.40
2019-05-19T08:37:07.043Z,39.90
2019-05-19T08:39:35.907Z,39.40
2019-05-19T08:42:04.717Z,41.80
2019-05-19T08:44:33.561Z,40.30
2019-05-19T08:47:02.376Z,41.50
2019-05-19T08:49:31.172Z,42.30
2019-05-19T08:52:00.060Z,41.60
2019-05-19T08:54:28.890Z,42.80
2019-05-19T08:56:57.770Z,43.00
2019-05-19T08:59:26.740Z,43.50
2019-05-19T09:01:55.628Z,43.20
2019-05-19T09:04:24.393Z,43.10
2019-05-19T09:06:53.150Z,42.90
2019-05-19T09:09:21.993Z,41.80
2019-05-19T09:11:50.869Z,42.70
2019-05-19T09:14:19.747Z,43.30
2019-05-19T09:16:48.596Z,43.50
2019-05-19T09:19:17.481Z,42.20
2019-05-19T09:21:46.366Z,42.60
2019-05-19T09:24:29.552Z,43.20
2019-05-19T09:26:45.763Z,42.50
2019-05-19T09:29:14.643Z,42.70
2019-05-19T09:31:43.509Z,42.40
2019-05-19T09:34:12.355Z,42.80
2019-05-19T09:36:41.361Z,42.60
2019-05-19T09:39:11.737Z,42.40
2019-05-19T09:41:40.556Z,42.40
2019-05-19T09:44:09.391Z,43.20
2019-05-19T09:46:38.306Z,42.70
2019-05-19T09:49:24.768Z,42.50
2019-05-19T09:51:53.697Z,43.70
2019-05-19T09:54:22.506Z,44.30
2019-05-19T09:56:51.365Z,41.80
2019-05-19T09:59:20.206Z,42.20
2019-05-19T10:01:49.084Z,41.90
2019-05-19T10:04:17.883Z,42.60
2019-05-19T10:06:46.754Z,41.40
2019-05-19T10:09:46.180Z,41.60
2019-05-19T10:12:14.965Z,41.30
2019-05-19T10:14:43.856Z,41.40
2019-05-19T10:17:12.822Z,41.30
2019-05-19T10:19:41.738Z,41.40
2019-05-19T10:22:10.732Z,41.60
2019-05-19T10:24:39.607Z,41.80
2019-05-19T10:27:08.517Z,41.90
2019-05-19T10:29:37.355Z,42.30
2019-05-19T10:32:06.291Z,40.90
2019-05-19T10:34:35.103Z,41.90
2019-05-19T10:37:04.087Z,41.90
2019-05-19T10:39:32.960Z,41.80
2019-05-19T10:42:02.098Z,41.30
2019-05-19T10:44:31.405Z,41.00
2019-05-19T10:47:00.379Z,41.40
2019-05-19T10:49:29.178Z,41.10
2019-05-19T10:51:58.140Z,42.30
2019-05-19T10:54:26.980Z,41.90
2019-05-19T10:56:55.896Z,41.90
2019-05-19T10:59:24.704Z,41.60
2019-05-19T11:01:53.616Z,42.40
2019-05-19T11:04:22.468Z,42.80
2019-05-19T11:06:51.474Z,42.20
2019-05-19T11:09:20.490Z,42.40
2019-05-19T11:11:49.377Z,42.30
2019-05-19T11:14:18.372Z,42.20
2019-05-19T11:16:47.260Z,42.10
2019-05-19T11:19:16.124Z,41.80
2019-05-19T11:21:44.951Z,42.70
2019-05-19T11:24:13.868Z,42.90
2019-05-19T11:26:42.629Z,43.30
2019-05-19T11:29:11.496Z,42.70
2019-05-19T11:31:40.442Z,43.60
2019-05-19T11:34:09.369Z,42.00
2019-05-19T11:36:38.186Z,42.20
2019-05-19T11:39:08.596Z,42.90
2019-05-19T11:41:37.498Z,42.10
2019-05-19T11:44:06.652Z,41.70
2019-05-19T11:46:35.515Z,41.60
2019-05-19T11:49:04.569Z,40.80
2019-05-19T11:51:33.477Z,40.50
2019-05-19T11:54:02.570Z,39.60
2019-05-19T11:56:31.383Z,40.20
2019-05-19T11:59:00.236Z,40.40
2019-05-19T12:01:30.305Z,40.60
2019-05-19T12:03:59.352Z,40.80
2019-05-19T12:06:39.486Z,40.70
2019-05-19T12:09:04.707Z,41.30
2019-05-19T12:11:37.312Z,41.50
2019-05-19T12:14:07.554Z,40.40
2019-05-19T12:16:36.687Z,41.10
2019-05-19T12:19:05.712Z,40.90
2019-05-19T12:21:34.572Z,41.40
2019-05-19T12:24:03.501Z,42.20
2019-05-19T12:26:34.802Z,41.70
2019-05-19T12:29:02.847Z,42.10
2019-05-19T12:31:31.730Z,41.60
2019-05-19T12:34:00.592Z,42.10
2019-05-19T12:36:29.376Z,42.70
2019-05-19T12:38:58.310Z,42.60
2019-05-19T12:41:27.240Z,42.00
2019-05-19T12:43:56.114Z,42.00
2019-05-19T12:46:25.148Z,42.10
2019-05-19T12:48:53.961Z,41.40
2019-05-19T12:51:22.963Z,41.20
2019-05-19T12:53:51.790Z,41.90
2019-05-19T12:56:20.542Z,41.90
2019-05-19T12:58:49.310Z,41.90
2019-05-19T13:01:18.093Z,41.70
2019-05-19T13:03:47.031Z,41.60
2019-05-19T13:06:15.858Z,42.10
2019-05-19T13:08:44.671Z,42.00
2019-05-19T13:11:13.449Z,42.70
2019-05-19T13:13:42.414Z,42.10
2019-05-19T13:16:11.313Z,42.20
2019-05-19T13:18:40.113Z,42.10
2019-05-19T13:21:08.954Z,41.80
2019-05-19T13:23:37.911Z,41.10
2019-05-19T13:26:06.829Z,40.40
2019-05-19T13:28:35.654Z,40.40
2019-05-19T13:31:04.432Z,40.10
2019-05-19T13:33:33.294Z,39.90
2019-05-19T13:36:02.343Z,40.30
2019-05-19T13:38:31.298Z,39.80
2019-05-19T13:41:00.257Z,40.50
2019-05-19T13:43:29.271Z,40.40
2019-05-19T13:45:58.171Z,39.70
2019-05-19T13:48:27.092Z,40.00
2019-05-19T13:50:56.127Z,40.40
2019-05-19T13:53:25.101Z,40.50
2019-05-19T13:55:53.946Z,41.10
2019-05-19T13:58:22.774Z,40.60
2019-05-19T14:00:51.534Z,40.00
2019-05-19T14:03:20.348Z,40.50
2019-05-19T14:05:49.245Z,40.60
2019-05-19T14:08:18.188Z,41.00
2019-05-19T14:10:47.115Z,40.30
2019-05-19T14:13:16.007Z,40.90
2019-05-19T14:15:44.744Z,40.60
2019-05-19T14:18:13.565Z,40.70
2019-05-19T14:20:42.637Z,40.30
2019-05-19T14:23:11.450Z,40.60
2019-05-19T14:25:40.212Z,40.80
2019-05-19T14:28:09.005Z,40.60
2019-05-19T14:30:37.887Z,40.10
2019-05-19T14:33:06.740Z,39.60
2019-05-19T14:35:35.532Z,40.60
2019-05-19T14:38:04.515Z,40.10
2019-05-19T14:40:33.386Z,39.70
2019-05-19T14:43:03.151Z,40.00
2019-05-19T14:45:32.162Z,39.80
2019-05-19T14:48:01.044Z,40.10
2019-05-19T14:50:29.962Z,39.80
2019-05-19T14:53:00.535Z,40.50
2019-05-19T14:55:29.362Z,40.50
2019-05-19T14:57:58.292Z,40.70
2019-05-19T15:00:27.287Z,40.60
2019-05-19T15:02:56.482Z,40.90
2019-05-19T15:05:25.314Z,40.90
2019-05-19T15:07:54.218Z,41.20
2019-05-19T15:10:23.152Z,40.90
2019-05-19T15:12:52.042Z,41.10
2019-05-19T15:15:20.970Z,41.10
2019-05-19T15:17:49.901Z,41.40
2019-05-19T15:20:19.104Z,40.70
2019-05-19T15:22:47.978Z,40.70
2019-05-19T15:25:16.976Z,40.70
2019-05-19T15:27:59.283Z,41.00
2019-05-19T15:30:16.971Z,40.50
2019-05-19T15:32:45.915Z,40.40
2019-05-19T15:35:15.678Z,39.40
2019-05-19T15:37:44.472Z,40.30
2019-05-19T15:40:13.807Z,40.40
2019-05-19T15:42:42.567Z,40.30
2019-05-19T15:45:12.046Z,40.70
2019-05-19T15:47:40.990Z,41.20
2019-05-19T15:50:10.407Z,41.10
2019-05-19T15:52:39.247Z,41.20
2019-05-19T15:55:27.336Z,40.90
2019-05-19T15:57:56.232Z,40.50
2019-05-19T16:00:24.992Z,41.00
2019-05-19T16:02:53.900Z,41.00
2019-05-19T16:05:22.914Z,41.00
2019-05-19T16:07:51.812Z,41.20
2019-05-19T16:10:20.816Z,41.10
2019-05-19T16:12:49.942Z,40.90
2019-05-19T16:15:19.145Z,41.10
2019-05-19T16:17:48.184Z,41.60
2019-05-19T16:20:17.290Z,41.30
2019-05-19T16:22:46.338Z,41.20
2019-05-19T16:25:15.430Z,41.10
2019-05-19T16:27:44.203Z,41.20
2019-05-19T16:30:13.186Z,40.30
2019-05-19T16:32:42.133Z,40.70
2019-05-19T16:35:11.232Z,40.80
2019-05-19T16:37:59.378Z,41.10
2019-05-19T16:40:28.386Z,40.90
2019-05-19T16:42:57.223Z,40.70
2019-05-19T16:45:26.162Z,40.60
2019-05-19T16:47:55.052Z,40.20
2019-05-19T16:50:24.142Z,40.90
2019-05-19T16:52:55.046Z,40.70
2019-05-19T16:55:28.337Z,40.60
2019-05-19T16:57:57.390Z,40.80
2019-05-19T17:00:27.712Z,40.60
2019-05-19T17:02:58.883Z,40.70
2019-05-19T17:05:27.809Z,41.40
2019-05-19T17:07:56.724Z,40.50
2019-05-19T17:10:25.547Z,40.90
2019-05-19T17:12:54.496Z,41.00
2019-05-19T17:15:23.581Z,41.50
2019-05-19T17:17:52.724Z,43.00
2019-05-19T17:20:22.065Z,43.30
2019-05-19T17:22:50.925Z,44.00
2019-05-19T17:25:20.159Z,44.40
2019-05-19T17:27:49.036Z,44.30
2019-05-19T17:30:19.773Z,44.80
2019-05-19T17:32:48.688Z,44.80
2019-05-19T17:35:17.692Z,45.00
2019-05-19T17:37:46.709Z,45.20
2019-05-19T17:40:17.006Z,45.30
2019-05-19T17:42:46.031Z,45.60
2019-05-19T17:45:15.716Z,45.70
2019-05-19T17:47:44.694Z,46.10
2019-05-19T17:50:14.056Z,46.10
2019-05-19T17:52:43.235Z,46.20
2019-05-19T17:55:12.292Z,46.50
2019-05-19T17:57:41.377Z,46.50
2019-05-19T18:00:10.823Z,46.60
2019-05-19T18:02:39.884Z,46.90
2019-05-19T18:05:09.289Z,46.80
2019-05-19T18:07:38.741Z,46.90
2019-05-19T18:10:08.132Z,47.20
2019-05-19T18:12:40.598Z,47.00
2019-05-19T18:15:10.537Z,47.50
2019-05-19T18:17:39.742Z,48.10
2019-05-19T18:20:22.958Z,49.00
2019-05-19T18:22:40.413Z,48.70
2019-05-19T18:25:10.227Z,49.10
2019-05-19T18:27:39.299Z,49.40
2019-05-19T18:30:08.712Z,50.40
2019-05-19T18:32:37.497Z,50.40
2019-05-19T18:35:07.285Z,50.00
2019-05-19T18:37:36.151Z,50.40
2019-05-19T18:40:05.676Z,51.10
2019-05-19T18:42:34.705Z,51.00
2019-05-19T18:45:03.846Z,51.30
2019-05-19T18:47:32.608Z,51.80
2019-05-19T18:50:01.507Z,52.70
2019-05-19T18:52:30.432Z,52.50
2019-05-19T18:54:59.425Z,51.80
2019-05-19T18:57:28.395Z,52.70
2019-05-19T18:59:57.299Z,52.40
2019-05-19T19:02:26.311Z,52.80
2019-05-19T19:04:55.418Z,53.10
2019-05-19T19:07:43.832Z,53.80
2019-05-19T19:10:14.169Z,53.40
2019-05-19T19:12:43.338Z,54.40
2019-05-19T19:15:12.571Z,54.20
2019-05-19T19:17:41.425Z,54.30
2019-05-19T19:20:10.581Z,54.10
2019-05-19T19:22:39.707Z,54.80
2019-05-19T19:25:08.622Z,55.30
2019-05-19T19:27:37.952Z,55.00
2019-05-19T19:30:09.100Z,55.70
2019-05-19T19:32:38.556Z,56.60
2019-05-19T19:35:08.501Z,55.60
2019-05-19T19:37:37.497Z,55.70
2019-05-19T19:40:07.303Z,57.00
2019-05-19T19:42:36.698Z,56.40
2019-05-19T19:45:06.758Z,56.50
2019-05-19T19:47:36.623Z,56.50
2019-05-19T19:50:07.475Z,57.30
2019-05-19T19:52:38.313Z,57.70
2019-05-19T19:55:07.406Z,56.70
2019-05-19T19:57:37.043Z,56.90
2019-05-19T20:00:17.866Z,57.30
2019-05-19T20:02:37.645Z,57.20
2019-05-19T20:05:07.544Z,57.50
2019-05-19T20:07:36.983Z,57.80
2019-05-19T20:10:06.482Z,56.90
2019-05-19T20:12:35.595Z,56.50
2019-05-19T20:15:05.385Z,58.10
2019-05-19T20:17:34.449Z,57.20
2019-05-19T20:20:03.342Z,57.00
2019-05-19T20:22:32.893Z,58.20
2019-05-19T20:25:02.249Z,57.70
2019-05-19T20:27:32.145Z,57.90
2019-05-19T20:30:03.682Z,58.50
2019-05-19T20:32:33.731Z,58.50
2019-05-19T20:35:03.135Z,59.10
2019-05-19T20:37:33.019Z,56.90
2019-05-19T20:40:02.501Z,58.10
2019-05-19T20:42:32.108Z,58.80
2019-05-19T20:45:02.121Z,58.50
2019-05-19T20:47:31.548Z,58.50
2019-05-19T20:50:01.017Z,58.80
2019-05-19T20:52:29.941Z,58.10
2019-05-19T20:54:58.903Z,59.40
2019-05-19T20:57:29.292Z,59.50
2019-05-19T20:59:59.936Z,59.40
2019-05-19T21:02:30.075Z,60.60
2019-05-19T21:04:59.833Z,59.50
2019-05-19T21:07:29.855Z,59.60
2019-05-19T21:09:59.955Z,60.90
2019-05-19T21:12:29.178Z,58.80
2019-05-19T21:14:58.611Z,60.80
2019-05-19T21:17:27.442Z,60.00
2019-05-19T21:19:56.739Z,60.70
2019-05-19T21:22:26.387Z,61.40
2019-05-19T21:24:56.014Z,61.30
2019-05-19T21:27:24.939Z,60.50
2019-05-19T21:29:54.060Z,62.40
2019-05-19T21:32:23.436Z,62.10
2019-05-19T21:34:52.775Z,60.90
2019-05-19T21:37:21.882Z,61.20
2019-05-19T21:39:50.780Z,61.60
2019-05-19T21:42:19.878Z,60.90
2019-05-19T21:44:49.343Z,61.30
2019-05-19T21:47:18.568Z,63.40
2019-05-19T21:49:48.356Z,63.30
2019-05-19T21:52:17.454Z,63.50
2019-05-19T21:54:46.581Z,63.60
2019-05-19T21:57:15.731Z,65.00
2019-05-19T21:59:44.956Z,63.60
2019-05-19T22:02:14.101Z,62.70
2019-05-19T22:04:43.494Z,65.40
2019-05-19T22:07:24.168Z,63.40
2019-05-19T22:09:53.168Z,65.10
2019-05-19T22:12:22.753Z,65.10
2019-05-19T22:14:53.706Z,65.80
2019-05-19T22:17:22.739Z,65.10
2019-05-19T22:19:51.664Z,66.40
2019-05-19T22:22:20.552Z,63.80
2019-05-19T22:24:49.550Z,67.50
2019-05-19T22:27:18.425Z,64.80
2019-05-19T22:29:48.160Z,65.30
2019-05-19T22:32:16.968Z,68.20
2019-05-19T22:34:45.826Z,69.00
2019-05-19T22:37:14.595Z,69.00
2019-05-19T22:39:43.391Z,69.40
2019-05-19T22:42:12.199Z,69.30
2019-05-19T22:44:41.016Z,68.80
2019-05-19T22:47:09.926Z,68.90
2019-05-19T22:49:38.730Z,70.10
2019-05-19T22:52:07.565Z,69.40
2019-05-19T22:54:36.333Z,68.90
2019-05-19T22:57:05.171Z,68.80
2019-05-19T22:59:34.095Z,67.30
2019-05-19T23:02:02.840Z,70.80
2019-05-19T23:04:31.601Z,70.10
2019-05-19T23:07:00.474Z,71.50
2019-05-19T23:09:29.305Z,71.70
2019-05-19T23:11:58.147Z,68.50
2019-05-19T23:14:27.015Z,69.50
2019-05-19T23:16:55.787Z,68.90
2019-05-19T23:19:24.583Z,71.10
2019-05-19T23:21:53.644Z,70.60
2019-05-19T23:24:22.412Z,69.80
2019-05-19T23:26:51.250Z,69.50
2019-05-19T23:29:20.153Z,71.80
2019-05-19T23:31:48.995Z,71.20
2019-05-19T23:34:18.054Z,72.70
2019-05-19T23:36:46.944Z,72.60
2019-05-19T23:39:15.739Z,73.40
2019-05-19T23:41:44.567Z,74.70
2019-05-19T23:44:13.463Z,72.10
2019-05-19T23:46:42.323Z,73.00
2019-05-19T23:49:11.238Z,70.80
2019-05-19T23:51:40.288Z,71.50
2019-05-19T23:54:09.152Z,71.70
2019-05-19T23:56:37.998Z,74.90
2019-05-19T23:59:06.863Z,70.80
